createdAt,value
2018-02-17T00:01:38.726Z,98998.52
2018-02-17T00:04:07.506Z,98996.59
2018-02-17T00:06:35.795Z,98993.68
2018-02-17T00:09:04.072Z,98990.09
2018-02-17T00:11:32.350Z,98985.19
2018-02-17T00:14:00.611Z,98988.52
2018-02-17T00:16:28.899Z,98983.02
2018-02-17T00:18:57.167Z,98981.03
2018-02-17T00:21:25.440Z,98977.02
2018-02-17T00:23:53.722Z,98975.47
2018-02-17T00:26:22.022Z,98977.33
2018-02-17T00:28:50.290Z,98975.62
2018-02-17T00:31:18.599Z,98979.53
2018-02-17T00:33:47.639Z,98983.45
2018-02-17T00:36:15.913Z,98978.19
2018-02-17T00:38:45.397Z,98974.19
2018-02-17T00:41:13.734Z,98981.36
2018-02-17T00:43:42.006Z,98978.09
2018-02-17T00:46:11.047Z,98973.95
2018-02-17T00:48:40.983Z,98971.92
2018-02-17T00:51:09.278Z,98969.17
2018-02-17T00:53:37.539Z,98967.34
2018-02-17T00:56:05.812Z,98964.57
2018-02-17T00:58:34.082Z,98957.84
2018-02-17T01:01:02.363Z,98961.58
2018-02-17T01:03:30.618Z,98956.00
2018-02-17T01:05:59.642Z,98952.64
2018-02-17T01:08:27.914Z,98952.23
2018-02-17T01:10:56.202Z,98953.02
2018-02-17T01:13:25.716Z,98949.25
2018-02-17T01:15:53.969Z,98950.86
2018-02-17T01:18:22.215Z,98950.64
2018-02-17T01:20:51.259Z,98949.46
2018-02-17T01:23:19.515Z,98948.39
2018-02-17T01:25:47.786Z,98935.77
2018-02-17T01:28:16.050Z,98931.78
2018-02-17T01:30:45.080Z,98919.81
2018-02-17T01:33:13.343Z,98921.95
2018-02-17T01:35:41.609Z,98914.59
2018-02-17T01:38:09.879Z,98915.31
2018-02-17T01:40:38.940Z,98920.05
2018-02-17T01:43:07.205Z,98918.77
2018-02-17T01:45:35.480Z,98917.25
2018-02-17T01:48:04.515Z,98908.17
2018-02-17T01:50:33.563Z,98910.89
2018-02-17T01:53:01.870Z,98907.50
2018-02-17T01:55:30.119Z,98905.09
2018-02-17T01:57:58.399Z,98894.06
2018-02-17T02:00:26.679Z,98895.09
2018-02-17T02:02:54.955Z,98887.67
2018-02-17T02:05:23.215Z,98887.98
2018-02-17T02:07:51.479Z,98887.72
2018-02-17T02:10:19.753Z,98876.64
2018-02-17T02:12:48.010Z,98861.95
2018-02-17T02:15:16.283Z,98861.16
2018-02-17T02:17:44.542Z,98863.42
2018-02-17T02:20:13.574Z,98858.25
2018-02-17T02:22:41.851Z,98854.23
2018-02-17T02:25:10.115Z,98855.51
2018-02-17T02:27:38.378Z,98851.65
2018-02-17T02:30:07.406Z,98855.78
2018-02-17T02:32:36.680Z,98851.95
2018-02-17T02:35:04.943Z,98850.97
2018-02-17T02:37:33.984Z,98839.56
2018-02-17T02:40:03.036Z,98835.83
2018-02-17T02:42:31.328Z,98844.02
2018-02-17T02:44:59.611Z,98847.09
2018-02-17T02:47:27.905Z,98854.77
2018-02-17T02:49:56.179Z,98862.95
2018-02-17T02:52:24.541Z,98862.52
2018-02-17T02:54:52.797Z,98860.41
2018-02-17T02:57:21.840Z,98862.62
2018-02-17T02:59:50.110Z,98863.88
2018-02-17T03:02:18.377Z,98845.87
2018-02-17T03:04:46.667Z,98843.69
2018-02-17T03:07:14.926Z,98837.91
2018-02-17T03:09:43.183Z,98830.56
2018-02-17T03:12:11.465Z,98832.50
2018-02-17T03:14:39.725Z,98850.09
2018-02-17T03:17:08.819Z,98847.45
2018-02-17T03:19:37.838Z,98845.73
2018-02-17T03:22:06.126Z,98843.55
2018-02-17T03:24:34.430Z,98848.45
2018-02-17T03:27:02.718Z,98851.13
2018-02-17T03:29:30.988Z,98842.27
2018-02-17T03:31:59.242Z,98839.75
2018-02-17T03:34:27.511Z,98841.92
2018-02-17T03:36:55.794Z,98840.27
2018-02-17T03:39:24.063Z,98844.39
2018-02-17T03:41:52.336Z,98843.35
2018-02-17T03:44:20.595Z,98842.49
2018-02-17T03:46:48.904Z,98839.97
2018-02-17T03:49:17.160Z,98838.30
2018-02-17T03:51:45.415Z,98834.11
2018-02-17T03:54:13.899Z,98831.53
2018-02-17T03:56:42.160Z,98833.34
2018-02-17T03:59:10.439Z,98828.19
2018-02-17T04:01:38.695Z,98827.19
2018-02-17T04:04:07.729Z,98824.34
2018-02-17T04:06:36.031Z,98822.41
2018-02-17T04:09:04.287Z,98813.92
2018-02-17T04:11:33.366Z,98812.39
2018-02-17T04:14:01.630Z,98810.41
2018-02-17T04:16:29.885Z,98805.16
2018-02-17T04:18:58.919Z,98794.30
2018-02-17T04:21:27.183Z,98790.67
2018-02-17T04:23:55.455Z,98785.08
2018-02-17T04:26:23.731Z,98772.92
2018-02-17T04:28:51.994Z,98774.33
2018-02-17T04:31:20.283Z,98777.12
2018-02-17T04:33:48.564Z,98782.11
2018-02-17T04:36:16.833Z,98785.23
2018-02-17T04:38:45.090Z,98783.73
2018-02-17T04:41:19.032Z,98792.33
2018-02-17T04:43:59.038Z,98786.56
2018-02-17T04:46:34.212Z,98777.17
2018-02-17T04:49:05.512Z,98777.78
2018-02-17T04:51:49.421Z,98766.80
2018-02-17T04:54:23.138Z,98758.95
2018-02-17T04:56:55.905Z,98759.34
2018-02-17T05:02:51.560Z,98757.94
2018-02-17T05:08:26.712Z,98747.09
2018-02-17T05:10:54.968Z,98745.03
2018-02-17T05:13:23.231Z,98743.72
2018-02-17T05:16:05.376Z,98747.00
2018-02-17T05:18:48.531Z,98735.86
2018-02-17T05:21:18.721Z,98729.59
2018-02-17T05:23:47.045Z,98727.97
2018-02-17T05:26:15.642Z,98739.63
2018-02-17T05:28:45.750Z,98726.63
2018-02-17T05:31:15.958Z,98725.09
2018-02-17T05:33:49.881Z,98715.47
2018-02-17T05:36:20.579Z,98719.63
2018-02-17T05:39:07.421Z,98716.41
2018-02-17T05:41:50.562Z,98724.26
2018-02-17T05:47:41.806Z,98710.42
2018-02-17T05:50:10.075Z,98708.45
2018-02-17T05:52:38.354Z,98706.17
2018-02-17T05:55:06.619Z,98699.38
2018-02-17T05:57:34.899Z,98698.59
2018-02-17T06:00:03.174Z,98694.70
2018-02-17T06:02:31.462Z,98688.86
2018-02-17T06:04:59.779Z,98698.73
2018-02-17T06:07:28.043Z,98701.44
2018-02-17T06:09:57.067Z,98702.08
2018-02-17T06:12:25.336Z,98699.52
2018-02-17T06:14:53.589Z,98708.91
2018-02-17T06:17:21.902Z,98705.88
2018-02-17T06:19:50.151Z,98702.22
2018-02-17T06:22:18.427Z,98699.59
2018-02-17T06:24:46.683Z,98700.30
2018-02-17T06:27:15.714Z,98699.07
2018-02-17T06:29:43.991Z,98698.25
2018-02-17T06:32:12.255Z,98698.04
2018-02-17T06:34:40.530Z,98691.31
2018-02-17T06:37:08.792Z,98685.99
2018-02-17T06:39:37.815Z,98686.96
2018-02-17T06:42:06.101Z,98683.13
2018-02-17T06:44:34.355Z,98683.92
2018-02-17T06:47:02.662Z,98671.53
2018-02-17T06:49:30.922Z,98662.64
2018-02-17T06:51:59.185Z,98661.48
2018-02-17T06:54:27.461Z,98664.36
2018-02-17T06:56:55.731Z,98659.66
2018-02-17T06:59:24.912Z,98653.52
2018-02-17T07:01:53.940Z,98650.34
2018-02-17T07:04:22.207Z,98654.30
2018-02-17T07:06:50.475Z,98651.66
2018-02-17T07:09:18.741Z,98652.94
2018-02-17T07:11:47.603Z,98653.31
2018-02-17T07:14:15.868Z,98649.38
2018-02-17T07:16:44.126Z,98652.03
2018-02-17T07:19:12.407Z,98649.69
2018-02-17T07:21:40.671Z,98641.54
2018-02-17T07:24:08.950Z,98637.91
2018-02-17T07:26:37.211Z,98634.31
2018-02-17T07:29:05.504Z,98633.34
2018-02-17T07:31:33.803Z,98636.34
2018-02-17T07:34:02.066Z,98628.81
2018-02-17T07:36:30.339Z,98620.02
2018-02-17T07:38:58.604Z,98617.59
2018-02-17T07:41:26.883Z,98616.27
2018-02-17T07:43:55.945Z,98608.44
2018-02-17T07:46:24.208Z,98598.72
2018-02-17T07:48:52.515Z,98592.86
2018-02-17T07:51:20.775Z,98599.05
2018-02-17T07:53:49.059Z,98596.94
2018-02-17T07:56:17.328Z,98594.16
2018-02-17T07:58:45.592Z,98589.48
2018-02-17T08:01:13.863Z,98596.92
2018-02-17T08:03:42.128Z,98599.68
2018-02-17T08:06:11.147Z,98601.70
2018-02-17T08:08:39.428Z,98605.97
2018-02-17T08:11:07.687Z,98601.50
2018-02-17T08:13:35.975Z,98603.20
2018-02-17T08:16:04.219Z,98604.02
2018-02-17T08:18:33.244Z,98599.91
2018-02-17T08:21:01.503Z,98592.00
2018-02-17T08:23:29.824Z,98589.03
2018-02-17T08:25:58.068Z,98598.55
2018-02-17T08:28:26.892Z,98599.63
2018-02-17T08:30:55.957Z,98601.70
2018-02-17T08:33:24.216Z,98603.83
2018-02-17T08:35:52.466Z,98607.86
2018-02-17T08:38:21.492Z,98601.19
2018-02-17T08:40:49.737Z,98607.01
2018-02-17T08:43:18.755Z,98602.17
2018-02-17T08:45:47.149Z,98598.75
2018-02-17T08:48:15.421Z,98602.23
2018-02-17T08:50:43.678Z,98603.48
2018-02-17T08:53:11.966Z,98605.66
2018-02-17T08:55:40.302Z,98609.92
2018-02-17T08:58:08.566Z,98612.98
2018-02-17T09:00:36.817Z,98605.57
2018-02-17T09:03:05.087Z,98606.26
2018-02-17T09:05:33.356Z,98604.23
2018-02-17T09:08:01.590Z,98595.80
2018-02-17T09:13:32.218Z,98579.99
2018-02-17T09:16:00.490Z,98573.38
2018-02-17T09:18:28.738Z,98574.23
2018-02-17T09:20:56.995Z,98571.30
2018-02-17T09:23:25.259Z,98570.27
2018-02-17T09:25:54.303Z,98571.38
2018-02-17T09:28:22.571Z,98566.93
2018-02-17T09:30:50.815Z,98566.41
2018-02-17T09:33:19.062Z,98571.81
2018-02-17T09:35:47.328Z,98569.48
2018-02-17T09:38:15.575Z,98564.69
2018-02-17T09:40:43.855Z,98573.38
2018-02-17T09:43:12.091Z,98571.45
2018-02-17T09:45:40.343Z,98570.93
2018-02-17T09:48:09.376Z,98566.63
2018-02-17T09:50:37.631Z,98570.66
2018-02-17T09:53:06.663Z,98569.08
2018-02-17T09:55:34.951Z,98567.19
2018-02-17T09:58:03.206Z,98563.23
2018-02-17T10:00:31.496Z,98559.87
2018-02-17T10:03:00.530Z,98564.72
2018-02-17T10:05:29.582Z,98563.10
2018-02-17T10:07:57.833Z,98563.67
2018-02-17T10:10:26.147Z,98563.19
2018-02-17T10:12:54.393Z,98563.39
2018-02-17T10:15:22.675Z,98576.26
2018-02-17T10:17:50.923Z,98576.77
2018-02-17T10:20:19.175Z,98574.91
2018-02-17T10:22:48.206Z,98574.23
2018-02-17T10:25:16.531Z,98566.31
2018-02-17T10:27:44.784Z,98574.05
2018-02-17T10:30:13.037Z,98566.32
2018-02-17T10:32:41.314Z,98556.15
2018-02-17T10:35:09.578Z,98563.31
2018-02-17T10:37:37.838Z,98549.59
2018-02-17T10:40:06.856Z,98552.08
2018-02-17T10:42:35.102Z,98553.59
2018-02-17T10:45:04.147Z,98553.34
2018-02-17T10:47:32.392Z,98554.54
2018-02-17T10:50:00.659Z,98550.03
2018-02-17T10:52:28.902Z,98545.95
2018-02-17T10:54:57.154Z,98541.41
2018-02-17T10:57:25.412Z,98538.42
2018-02-17T10:59:53.675Z,98535.82
2018-02-17T11:02:21.946Z,98533.16
2018-02-17T11:04:50.216Z,98526.53
2018-02-17T11:07:18.462Z,98532.10
2018-02-17T11:09:46.710Z,98529.95
2018-02-17T11:12:14.977Z,98528.67
2018-02-17T11:14:43.220Z,98518.70
2018-02-17T11:17:11.483Z,98524.38
2018-02-17T11:19:40.509Z,98526.06
2018-02-17T11:22:08.795Z,98521.48
2018-02-17T11:24:37.071Z,98516.59
2018-02-17T11:27:05.335Z,98513.85
2018-02-17T11:29:33.601Z,98514.59
2018-02-17T11:32:01.855Z,98510.66
2018-02-17T11:34:30.884Z,98514.68
2018-02-17T11:36:59.126Z,98515.26
2018-02-17T11:39:28.144Z,98512.84
2018-02-17T11:41:56.416Z,98513.27
2018-02-17T11:44:24.675Z,98513.07
2018-02-17T11:46:52.942Z,98503.61
2018-02-17T11:49:21.961Z,98503.22
2018-02-17T11:51:50.216Z,98505.14
2018-02-17T11:54:18.471Z,98507.89
2018-02-17T11:56:46.770Z,98506.00
2018-02-17T11:59:15.787Z,98494.69
2018-02-17T12:01:44.051Z,98503.80
2018-02-17T12:04:12.317Z,98507.69
2018-02-17T12:06:40.567Z,98503.42
2018-02-17T12:09:09.593Z,98513.53
2018-02-17T12:11:37.875Z,98502.05
2018-02-17T12:14:06.119Z,98503.84
2018-02-17T12:16:35.174Z,98501.57
2018-02-17T12:19:03.422Z,98505.16
2018-02-17T12:21:31.693Z,98502.41
2018-02-17T12:23:59.940Z,98504.80
2018-02-17T12:26:29.069Z,98501.88
2018-02-17T12:28:57.319Z,98500.31
2018-02-17T12:31:26.350Z,98500.25
2018-02-17T12:33:54.592Z,98503.94
2018-02-17T12:36:23.639Z,98494.47
2018-02-17T12:38:51.911Z,98498.63
2018-02-17T12:41:20.258Z,98499.20
2018-02-17T12:43:48.508Z,98505.45
2018-02-17T12:46:17.594Z,98503.54
2018-02-17T12:48:46.679Z,98501.84
2018-02-17T12:51:15.003Z,98501.38
2018-02-17T12:53:43.259Z,98501.89
2018-02-17T12:56:11.511Z,98495.17
2018-02-17T12:58:39.790Z,98504.44
2018-02-17T13:01:08.055Z,98499.47
2018-02-17T13:03:36.303Z,98494.95
2018-02-17T13:06:04.586Z,98484.87
2018-02-17T13:08:32.839Z,98494.28
2018-02-17T13:11:01.106Z,98477.72
2018-02-17T13:13:29.432Z,98491.41
2018-02-17T13:15:57.652Z,98500.75
2018-02-17T13:18:25.923Z,98503.46
2018-02-17T13:20:54.182Z,98499.94
2018-02-17T13:23:24.034Z,98504.83
2018-02-17T13:25:52.308Z,98502.87
2018-02-17T13:28:28.464Z,98498.39
2018-02-17T13:30:56.715Z,98498.34
2018-02-17T13:33:25.856Z,98499.14
2018-02-17T13:35:54.133Z,98509.07
2018-02-17T13:38:22.379Z,98513.16
2018-02-17T13:40:50.760Z,98517.82
2018-02-17T13:43:19.045Z,98510.35
2018-02-17T13:45:47.299Z,98517.78
2018-02-17T13:48:15.693Z,98517.63
2018-02-17T13:50:43.969Z,98520.27
2018-02-17T13:53:12.288Z,98519.09
2018-02-17T13:55:40.592Z,98513.94
2018-02-17T13:58:09.804Z,98514.33
2018-02-17T14:00:37.992Z,98516.07
2018-02-17T14:03:06.254Z,98517.39
2018-02-17T14:05:34.530Z,98519.98
2018-02-17T14:08:02.782Z,98522.73
2018-02-17T14:10:31.813Z,98522.44
2018-02-17T14:13:00.140Z,98520.14
2018-02-17T14:15:28.542Z,98526.77
2018-02-17T14:17:57.807Z,98530.97
2018-02-17T14:20:27.784Z,98525.75
2018-02-17T14:22:56.143Z,98534.61
2018-02-17T14:25:24.524Z,98538.13
2018-02-17T14:27:52.857Z,98541.54
2018-02-17T14:30:21.225Z,98543.91
2018-02-17T14:32:49.656Z,98541.53
2018-02-17T14:35:18.035Z,98549.91
2018-02-17T14:37:47.560Z,98547.66
2018-02-17T14:40:16.220Z,98550.16
2018-02-17T14:42:44.632Z,98546.17
2018-02-17T14:45:12.922Z,98544.41
2018-02-17T14:47:41.235Z,98550.28
2018-02-17T14:50:10.295Z,98556.47
2018-02-17T14:52:38.586Z,98564.16
2018-02-17T14:55:06.855Z,98561.14
2018-02-17T14:57:35.123Z,98563.27
2018-02-17T15:00:03.474Z,98567.41
2018-02-17T15:02:31.776Z,98567.34
2018-02-17T15:05:00.116Z,98565.70
2018-02-17T15:07:28.399Z,98570.48
2018-02-17T15:09:56.677Z,98564.67
2018-02-17T15:12:24.957Z,98559.92
2018-02-17T15:14:53.245Z,98571.16
2018-02-17T15:17:21.511Z,98572.50
2018-02-17T15:19:49.835Z,98575.34
2018-02-17T15:22:18.186Z,98580.91
2018-02-17T15:24:46.522Z,98580.18
2018-02-17T15:27:14.849Z,98577.63
2018-02-17T15:29:43.203Z,98578.92
2018-02-17T15:32:11.576Z,98570.78
2018-02-17T15:34:39.943Z,98575.70
2018-02-17T15:37:08.256Z,98569.11
2018-02-17T15:39:36.519Z,98568.49
2018-02-17T15:42:04.807Z,98571.88
2018-02-17T15:44:33.200Z,98572.56
2018-02-17T15:47:01.479Z,98575.09
2018-02-17T15:49:29.834Z,98576.39
2018-02-17T15:51:58.198Z,98576.05
2018-02-17T15:54:26.467Z,98580.59
2018-02-17T15:56:54.937Z,98579.92
2018-02-17T15:59:23.314Z,98581.66
2018-02-17T16:01:52.337Z,98579.34
2018-02-17T16:04:20.651Z,98590.45
2018-02-17T16:06:49.732Z,98596.64
2018-02-17T16:09:19.772Z,98592.38
2018-02-17T16:11:48.186Z,98600.05
2018-02-17T16:14:17.760Z,98601.81
2018-02-17T16:16:47.106Z,98604.69
2018-02-17T16:19:15.532Z,98606.06
2018-02-17T16:21:44.591Z,98608.47
2018-02-17T16:24:12.846Z,98600.91
2018-02-17T16:26:41.246Z,98612.19
2018-02-17T16:29:09.498Z,98613.94
2018-02-17T16:31:37.774Z,98614.25
2018-02-17T16:34:06.081Z,98611.56
2018-02-17T16:36:35.233Z,98611.80
2018-02-17T16:39:03.635Z,98616.94
2018-02-17T16:41:31.927Z,98615.48
2018-02-17T16:44:00.195Z,98619.83
2018-02-17T16:46:28.528Z,98621.39
2018-02-17T16:48:56.800Z,98622.31
2018-02-17T16:51:25.944Z,98628.33
2018-02-17T16:53:54.218Z,98631.08
2018-02-17T16:56:22.626Z,98631.24
2018-02-17T16:58:50.927Z,98630.57
2018-02-17T17:01:21.078Z,98628.27
2018-02-17T17:03:49.968Z,98636.84
2018-02-17T17:06:18.551Z,98638.22
2018-02-17T17:08:47.017Z,98643.27
2018-02-17T17:11:15.851Z,98648.58
2018-02-17T17:13:45.437Z,98659.82
2018-02-17T17:16:13.989Z,98657.32
2018-02-17T17:18:42.754Z,98664.19
2018-02-17T17:21:11.351Z,98660.58
2018-02-17T17:23:40.173Z,98668.34
2018-02-17T17:26:09.171Z,98667.92
2018-02-17T17:28:38.544Z,98676.23
2018-02-17T17:31:07.249Z,98681.41
2018-02-17T17:33:35.892Z,98683.45
2018-02-17T17:36:04.330Z,98684.24
2018-02-17T17:38:33.103Z,98681.23
2018-02-17T17:41:01.591Z,98684.98
2018-02-17T17:43:29.932Z,98685.27
2018-02-17T17:45:58.818Z,98695.94
2018-02-17T17:48:27.735Z,98691.27
2018-02-17T17:50:56.632Z,98696.82
2018-02-17T17:53:26.239Z,98701.75
2018-02-17T17:55:56.185Z,98703.42
2018-02-17T17:58:25.469Z,98706.47
2018-02-17T18:00:56.253Z,98700.55
2018-02-17T18:03:25.472Z,98703.94
2018-02-17T18:05:55.363Z,98713.09
2018-02-17T18:08:24.188Z,98710.16
2018-02-17T18:10:54.573Z,98713.45
2018-02-17T18:13:24.445Z,98714.71
2018-02-17T18:15:54.331Z,98709.94
2018-02-17T18:18:25.178Z,98712.66
2018-02-17T18:20:54.966Z,98718.50
2018-02-17T18:23:24.194Z,98717.36
2018-02-17T18:25:54.113Z,98724.47
2018-02-17T18:28:24.059Z,98735.33
2018-02-17T18:30:54.082Z,98738.13
2018-02-17T18:33:24.055Z,98737.53
2018-02-17T18:35:53.466Z,98737.33
2018-02-17T18:38:22.841Z,98738.09
2018-02-17T18:40:52.996Z,98745.34
2018-02-17T18:43:22.266Z,98750.28
2018-02-17T18:45:52.396Z,98749.02
2018-02-17T18:48:21.735Z,98753.94
2018-02-17T18:50:51.159Z,98749.73
2018-02-17T18:53:20.503Z,98753.56
2018-02-17T18:55:49.785Z,98755.33
2018-02-17T18:58:19.098Z,98753.16
2018-02-17T19:00:48.378Z,98753.66
2018-02-17T19:03:17.807Z,98762.84
2018-02-17T19:05:48.122Z,98765.75
2018-02-17T19:08:18.331Z,98767.81
2018-02-17T19:10:47.670Z,98775.31
2018-02-17T19:13:16.978Z,98770.70
2018-02-17T19:15:46.965Z,98778.70
2018-02-17T19:18:16.755Z,98777.21
2018-02-17T19:20:47.349Z,98779.33
2018-02-17T19:23:17.214Z,98776.09
2018-02-17T19:25:47.460Z,98777.47
2018-02-17T19:28:16.997Z,98782.59
2018-02-17T19:30:47.858Z,98780.51
2018-02-17T19:33:18.475Z,98782.86
2018-02-17T19:35:49.228Z,98783.59
2018-02-17T19:38:20.423Z,98790.30
2018-02-17T19:40:50.436Z,98789.91
2018-02-17T19:43:20.292Z,98797.14
2018-02-17T19:45:50.446Z,98803.75
2018-02-17T19:48:19.739Z,98801.45
2018-02-17T19:50:50.478Z,98809.10
2018-02-17T19:53:19.872Z,98810.83
2018-02-17T19:55:50.819Z,98809.80
2018-02-17T19:58:20.212Z,98805.55
2018-02-17T20:00:51.058Z,98810.06
2018-02-17T20:03:20.392Z,98818.15
2018-02-17T20:05:49.677Z,98808.66
2018-02-17T20:08:19.662Z,98815.61
2018-02-17T20:10:50.365Z,98814.30
2018-02-17T20:13:19.809Z,98809.38
2018-02-17T20:15:49.915Z,98811.95
2018-02-17T20:18:20.335Z,98815.60
2018-02-17T20:20:50.393Z,98821.34
2018-02-17T20:23:20.319Z,98820.94
2018-02-17T20:25:50.299Z,98822.34
2018-02-17T20:28:21.072Z,98822.55
2018-02-17T20:30:51.924Z,98830.30
2018-02-17T20:33:21.838Z,98830.15
2018-02-17T20:35:52.467Z,98836.77
2018-02-17T20:38:22.410Z,98836.82
2018-02-17T20:40:53.197Z,98833.11
2018-02-17T20:43:22.620Z,98836.84
2018-02-17T20:45:52.213Z,98838.30
2018-02-17T20:48:22.182Z,98836.61
2018-02-17T20:50:52.919Z,98843.55
2018-02-17T20:53:22.951Z,98839.09
2018-02-17T20:55:52.717Z,98837.53
2018-02-17T20:58:22.150Z,98843.03
2018-02-17T21:00:52.474Z,98839.62
2018-02-17T21:03:21.978Z,98851.33
2018-02-17T21:05:53.201Z,98848.28
2018-02-17T21:08:23.446Z,98843.61
2018-02-17T21:10:53.523Z,98847.84
2018-02-17T21:13:23.071Z,98849.51
2018-02-17T21:15:53.930Z,98859.63
2018-02-17T21:18:24.165Z,98865.57
2018-02-17T21:20:54.238Z,98868.65
2018-02-17T21:23:24.427Z,98869.50
2018-02-17T21:25:54.279Z,98865.77
2018-02-17T21:28:24.449Z,98872.66
2018-02-17T21:30:53.750Z,98876.92
2018-02-17T21:33:23.624Z,98876.94
2018-02-17T21:35:52.893Z,98879.48
2018-02-17T21:38:22.861Z,98879.19
2018-02-17T21:40:52.864Z,98884.05
2018-02-17T21:43:22.806Z,98877.25
2018-02-17T21:45:52.264Z,98883.25
2018-02-17T21:48:21.573Z,98882.31
2018-02-17T21:50:51.459Z,98884.23
2018-02-17T21:53:22.214Z,98886.95
2018-02-17T21:55:52.875Z,98881.88
2018-02-17T21:58:23.588Z,98892.47
2018-02-17T22:00:53.770Z,98894.79
2018-02-17T22:03:23.706Z,98898.00
2018-02-17T22:05:54.771Z,98895.81
2018-02-17T22:08:24.577Z,98903.33
2018-02-17T22:10:54.597Z,98901.78
2018-02-17T22:13:24.468Z,98907.81
2018-02-17T22:15:54.446Z,98914.23
2018-02-17T22:18:24.334Z,98909.50
2018-02-17T22:20:55.033Z,98902.74
2018-02-17T22:23:25.495Z,98904.56
2018-02-17T22:25:55.555Z,98905.28
2018-02-17T22:28:25.314Z,98906.78
2018-02-17T22:30:56.007Z,98907.53
2018-02-17T22:33:25.825Z,98914.72
2018-02-17T22:35:55.722Z,98919.30
2018-02-17T22:38:25.645Z,98925.03
2018-02-17T22:40:55.510Z,98923.20
2018-02-17T22:43:25.150Z,98916.05
2018-02-17T22:45:55.126Z,98918.51
2018-02-17T22:48:25.294Z,98921.19
2018-02-17T22:50:54.684Z,98928.91
2018-02-17T22:53:24.528Z,98928.14
2018-02-17T22:55:54.489Z,98928.80
2018-02-17T22:58:24.420Z,98932.77
2018-02-17T23:00:53.788Z,98943.27
2018-02-17T23:03:23.600Z,98942.55
2018-02-17T23:05:52.789Z,98944.78
2018-02-17T23:08:21.319Z,98951.20
2018-02-17T23:10:49.696Z,98947.13
2018-02-17T23:13:18.154Z,98942.94
2018-02-17T23:15:46.415Z,98945.59
2018-02-17T23:18:14.709Z,98956.22
2018-02-17T23:20:42.971Z,98957.95
2018-02-17T23:23:11.256Z,98956.87
2018-02-17T23:25:39.538Z,98960.74
2018-02-17T23:28:07.811Z,98961.67
2018-02-17T23:30:36.172Z,98963.75
2018-02-17T23:33:04.446Z,98967.34
2018-02-17T23:35:32.808Z,98969.05
2018-02-17T23:38:01.138Z,98968.43
2018-02-17T23:40:29.407Z,98965.20
2018-02-17T23:42:57.687Z,98967.62
2018-02-17T23:45:26.042Z,98964.08
2018-02-17T23:47:54.300Z,98966.85
2018-02-17T23:50:22.559Z,98973.52
2018-02-17T23:52:51.054Z,98969.16
2018-02-17T23:55:19.338Z,98970.00
2018-02-17T23:57:47.612Z,98969.48
